sensor_id;sensor_type;location;lat;lon;timestamp;P1;durP1;ratioP1;P2;durP2;ratioP2
83182;SDS011;73077;49.898;16.450;2023-11-22T00:00:11;0.52;;;0.20;;
83182;SDS011;73077;49.898;16.450;2023-11-22T00:02:39;0.65;;;0.35;;
83182;SDS011;73077;49.898;16.450;2023-11-22T00:05:05;2.00;;;0.40;;
83182;SDS011;73077;49.898;16.450;2023-11-22T00:07:34;1.30;;;0.50;;
83182;SDS011;73077;49.898;16.450;2023-11-22T00:10:00;2.08;;;0.63;;
83182;SDS011;73077;49.898;16.450;2023-11-22T00:12:29;1.08;;;0.63;;
83182;SDS011;73077;49.898;16.450;2023-11-22T00:15:06;2.22;;;0.60;;
83182;SDS011;73077;49.898;16.450;2023-11-22T00:17:33;7.00;;;1.08;;
83182;SDS011;73077;49.898;16.450;2023-11-22T00:20:01;0.60;;;0.30;;
83182;SDS011;73077;49.898;16.450;2023-11-22T00:22:33;3.38;;;0.43;;
83182;SDS011;73077;49.898;16.450;2023-11-22T00:25:01;2.67;;;0.90;;
83182;SDS011;73077;49.898;16.450;2023-11-22T00:27:30;0.77;;;0.45;;
83182;SDS011;73077;49.898;16.450;2023-11-22T00:29:57;1.05;;;0.88;;
83182;SDS011;73077;49.898;16.450;2023-11-22T00:32:23;1.27;;;0.40;;
83182;SDS011;73077;49.898;16.450;2023-11-22T00:34:51;3.20;;;0.50;;
83182;SDS011;73077;49.898;16.450;2023-11-22T00:37:19;5.18;;;1.27;;
83182;SDS011;73077;49.898;16.450;2023-11-22T00:39:45;0.80;;;0.45;;
83182;SDS011;73077;49.898;16.450;2023-11-22T00:42:11;1.35;;;0.85;;
83182;SDS011;73077;49.898;16.450;2023-11-22T00:44:37;1.75;;;0.57;;
83182;SDS011;73077;49.898;16.450;2023-11-22T00:47:03;0.93;;;0.43;;
83182;SDS011;73077;49.898;16.450;2023-11-22T00:49:29;6.82;;;0.95;;
83182;SDS011;73077;49.898;16.450;2023-11-22T00:51:55;0.40;;;0.20;;
83182;SDS011;73077;49.898;16.450;2023-11-22T00:54:21;2.17;;;0.38;;
83182;SDS011;73077;49.898;16.450;2023-11-22T00:56:46;1.95;;;0.35;;
83182;SDS011;73077;49.898;16.450;2023-11-22T00:59:13;1.13;;;0.40;;
83182;SDS011;73077;49.898;16.450;2023-11-22T01:01:40;1.05;;;0.30;;
83182;SDS011;73077;49.898;16.450;2023-11-22T01:04:06;1.10;;;0.30;;
83182;SDS011;73077;49.898;16.450;2023-11-22T01:06:33;0.75;;;0.47;;
83182;SDS011;73077;49.898;16.450;2023-11-22T01:09:00;0.95;;;0.32;;
83182;SDS011;73077;49.898;16.450;2023-11-22T01:11:25;1.00;;;0.77;;
83182;SDS011;73077;49.898;16.450;2023-11-22T01:13:51;2.20;;;0.70;;
83182;SDS011;73077;49.898;16.450;2023-11-22T01:16:17;0.98;;;0.50;;
83182;SDS011;73077;49.898;16.450;2023-11-22T01:18:43;0.77;;;0.40;;
83182;SDS011;73077;49.898;16.450;2023-11-22T01:21:11;1.70;;;0.73;;
83182;SDS011;73077;49.898;16.450;2023-11-22T01:23:37;1.88;;;0.73;;
83182;SDS011;73077;49.898;16.450;2023-11-22T01:26:03;3.42;;;0.30;;
83182;SDS011;73077;49.898;16.450;2023-11-22T01:28:29;1.23;;;0.40;;
83182;SDS011;73077;49.898;16.450;2023-11-22T01:30:59;3.80;;;0.65;;
83182;SDS011;73077;49.898;16.450;2023-11-22T01:33:27;0.57;;;0.35;;
83182;SDS011;73077;49.898;16.450;2023-11-22T01:35:53;0.70;;;0.50;;
83182;SDS011;73077;49.898;16.450;2023-11-22T01:38:19;0.52;;;0.35;;
83182;SDS011;73077;49.898;16.450;2023-11-22T01:40:47;0.30;;;0.20;;
83182;SDS011;73077;49.898;16.450;2023-11-22T01:43:19;0.95;;;0.47;;
83182;SDS011;73077;49.898;16.450;2023-11-22T01:45:47;0.50;;;0.40;;
83182;SDS011;73077;49.898;16.450;2023-11-22T01:48:14;1.40;;;0.85;;
83182;SDS011;73077;49.898;16.450;2023-11-22T01:50:40;0.90;;;0.52;;
83182;SDS011;73077;49.898;16.450;2023-11-22T01:53:07;0.30;;;0.20;;
83182;SDS011;73077;49.898;16.450;2023-11-22T01:55:35;0.65;;;0.40;;
83182;SDS011;73077;49.898;16.450;2023-11-22T01:58:02;0.50;;;0.35;;
83182;SDS011;73077;49.898;16.450;2023-11-22T02:00:32;1.00;;;0.30;;
83182;SDS011;73077;49.898;16.450;2023-11-22T02:03:01;2.00;;;0.57;;
83182;SDS011;73077;49.898;16.450;2023-11-22T02:05:27;0.77;;;0.30;;
83182;SDS011;73077;49.898;16.450;2023-11-22T02:07:55;2.00;;;0.40;;
83182;SDS011;73077;49.898;16.450;2023-11-22T02:10:22;2.38;;;0.50;;
83182;SDS011;73077;49.898;16.450;2023-11-22T02:12:49;0.60;;;0.47;;
83182;SDS011;73077;49.898;16.450;2023-11-22T02:15:14;1.17;;;0.60;;
83182;SDS011;73077;49.898;16.450;2023-11-22T02:17:40;1.55;;;0.28;;
83182;SDS011;73077;49.898;16.450;2023-11-22T02:20:08;0.82;;;0.35;;
83182;SDS011;73077;49.898;16.450;2023-11-22T02:22:46;0.38;;;0.30;;
83182;SDS011;73077;49.898;16.450;2023-11-22T02:25:14;0.75;;;0.38;;
83182;SDS011;73077;49.898;16.450;2023-11-22T02:27:40;1.30;;;0.40;;
83182;SDS011;73077;49.898;16.450;2023-11-22T02:30:07;1.70;;;0.70;;
83182;SDS011;73077;49.898;16.450;2023-11-22T02:32:34;1.25;;;0.50;;
83182;SDS011;73077;49.898;16.450;2023-11-22T02:35:00;1.17;;;0.40;;
83182;SDS011;73077;49.898;16.450;2023-11-22T02:37:26;1.55;;;0.50;;
83182;SDS011;73077;49.898;16.450;2023-11-22T02:40:16;1.20;;;0.43;;
83182;SDS011;73077;49.898;16.450;2023-11-22T02:42:39;0.50;;;0.47;;
83182;SDS011;73077;49.898;16.450;2023-11-22T02:45:06;1.02;;;0.40;;
83182;SDS011;73077;49.898;16.450;2023-11-22T02:47:32;0.82;;;0.30;;
83182;SDS011;73077;49.898;16.450;2023-11-22T02:49:59;2.33;;;0.30;;
83182;SDS011;73077;49.898;16.450;2023-11-22T02:52:28;0.75;;;0.35;;
83182;SDS011;73077;49.898;16.450;2023-11-22T02:54:53;0.90;;;0.40;;
83182;SDS011;73077;49.898;16.450;2023-11-22T02:57:19;1.08;;;0.57;;
83182;SDS011;73077;49.898;16.450;2023-11-22T02:59:46;2.67;;;1.05;;
83182;SDS011;73077;49.898;16.450;2023-11-22T03:02:13;1.33;;;0.52;;
83182;SDS011;73077;49.898;16.450;2023-11-22T03:07:10;0.30;;;0.13;;
83182;SDS011;73077;49.898;16.450;2023-11-22T03:09:35;0.45;;;0.25;;
83182;SDS011;73077;49.898;16.450;2023-11-22T03:12:02;0.70;;;0.32;;
83182;SDS011;73077;49.898;16.450;2023-11-22T03:14:28;1.42;;;0.73;;
83182;SDS011;73077;49.898;16.450;2023-11-22T03:16:57;0.65;;;0.50;;
83182;SDS011;73077;49.898;16.450;2023-11-22T03:19:23;1.77;;;1.17;;
83182;SDS011;73077;49.898;16.450;2023-11-22T03:21:49;0.70;;;0.30;;
83182;SDS011;73077;49.898;16.450;2023-11-22T03:24:15;1.00;;;0.88;;
83182;SDS011;73077;49.898;16.450;2023-11-22T03:26:42;0.95;;;0.57;;
83182;SDS011;73077;49.898;16.450;2023-11-22T03:29:08;0.30;;;0.28;;
83182;SDS011;73077;49.898;16.450;2023-11-22T03:31:34;0.75;;;0.57;;
83182;SDS011;73077;49.898;16.450;2023-11-22T03:33:59;1.15;;;0.35;;
83182;SDS011;73077;49.898;16.450;2023-11-22T03:36:26;0.28;;;0.20;;
83182;SDS011;73077;49.898;16.450;2023-11-22T03:38:53;0.88;;;0.47;;
83182;SDS011;73077;49.898;16.450;2023-11-22T03:41:20;1.83;;;0.55;;
83182;SDS011;73077;49.898;16.450;2023-11-22T03:43:46;0.80;;;0.60;;
83182;SDS011;73077;49.898;16.450;2023-11-22T03:46:12;0.90;;;0.40;;
83182;SDS011;73077;49.898;16.450;2023-11-22T03:48:39;1.73;;;0.40;;
83182;SDS011;73077;49.898;16.450;2023-11-22T03:51:05;1.23;;;0.50;;
83182;SDS011;73077;49.898;16.450;2023-11-22T03:53:30;1.25;;;0.77;;
83182;SDS011;73077;49.898;16.450;2023-11-22T03:55:57;0.85;;;0.25;;
83182;SDS011;73077;49.898;16.450;2023-11-22T03:58:24;0.85;;;0.40;;
83182;SDS011;73077;49.898;16.450;2023-11-22T04:00:51;1.13;;;0.60;;
83182;SDS011;73077;49.898;16.450;2023-11-22T04:03:18;1.85;;;0.68;;
83182;SDS011;73077;49.898;16.450;2023-11-22T04:05:45;0.43;;;0.32;;
83182;SDS011;73077;49.898;16.450;2023-11-22T04:11:52;0.65;;;0.55;;
83182;SDS011;73077;49.898;16.450;2023-11-22T04:14:17;1.30;;;0.45;;
83182;SDS011;73077;49.898;16.450;2023-11-22T04:16:45;0.40;;;0.28;;
83182;SDS011;73077;49.898;16.450;2023-11-22T04:19:12;1.77;;;0.63;;
83182;SDS011;73077;49.898;16.450;2023-11-22T04:21:38;0.55;;;0.22;;
83182;SDS011;73077;49.898;16.450;2023-11-22T04:24:04;1.58;;;0.52;;
83182;SDS011;73077;49.898;16.450;2023-11-22T04:26:30;1.10;;;0.30;;
83182;SDS011;73077;49.898;16.450;2023-11-22T04:28:56;1.45;;;0.88;;
83182;SDS011;73077;49.898;16.450;2023-11-22T04:31:23;1.05;;;0.43;;
83182;SDS011;73077;49.898;16.450;2023-11-22T04:33:49;0.85;;;0.50;;
83182;SDS011;73077;49.898;16.450;2023-11-22T04:36:15;1.02;;;0.60;;
83182;SDS011;73077;49.898;16.450;2023-11-22T04:38:42;1.70;;;0.43;;
83182;SDS011;73077;49.898;16.450;2023-11-22T04:41:09;1.13;;;0.40;;
83182;SDS011;73077;49.898;16.450;2023-11-22T04:43:36;0.77;;;0.43;;
83182;SDS011;73077;49.898;16.450;2023-11-22T04:46:03;0.65;;;0.52;;
83182;SDS011;73077;49.898;16.450;2023-11-22T04:48:29;1.25;;;0.20;;
83182;SDS011;73077;49.898;16.450;2023-11-22T04:50:55;1.70;;;0.40;;
83182;SDS011;73077;49.898;16.450;2023-11-22T04:53:22;1.15;;;0.82;;
83182;SDS011;73077;49.898;16.450;2023-11-22T04:55:48;1.48;;;0.57;;
83182;SDS011;73077;49.898;16.450;2023-11-22T04:58:16;0.73;;;0.43;;
83182;SDS011;73077;49.898;16.450;2023-11-22T05:00:52;0.77;;;0.28;;
83182;SDS011;73077;49.898;16.450;2023-11-22T05:03:18;1.27;;;0.55;;
83182;SDS011;73077;49.898;16.450;2023-11-22T05:05:45;1.65;;;0.60;;
83182;SDS011;73077;49.898;16.450;2023-11-22T05:08:13;1.30;;;0.47;;
83182;SDS011;73077;49.898;16.450;2023-11-22T05:10:39;0.82;;;0.60;;
83182;SDS011;73077;49.898;16.450;2023-11-22T05:13:07;1.48;;;0.43;;
83182;SDS011;73077;49.898;16.450;2023-11-22T05:15:34;0.85;;;0.65;;
83182;SDS011;73077;49.898;16.450;2023-11-22T05:18:01;2.72;;;0.85;;
83182;SDS011;73077;49.898;16.450;2023-11-22T05:20:28;1.15;;;0.50;;
83182;SDS011;73077;49.898;16.450;2023-11-22T05:22:55;2.72;;;0.80;;
83182;SDS011;73077;49.898;16.450;2023-11-22T05:25:21;1.17;;;0.63;;
83182;SDS011;73077;49.898;16.450;2023-11-22T05:27:47;2.00;;;0.73;;
83182;SDS011;73077;49.898;16.450;2023-11-22T05:30:17;2.30;;;0.90;;
83182;SDS011;73077;49.898;16.450;2023-11-22T05:32:43;1.83;;;0.98;;
83182;SDS011;73077;49.898;16.450;2023-11-22T05:35:08;1.05;;;0.63;;
83182;SDS011;73077;49.898;16.450;2023-11-22T05:37:35;1.00;;;0.63;;
83182;SDS011;73077;49.898;16.450;2023-11-22T05:40:02;1.50;;;0.73;;
83182;SDS011;73077;49.898;16.450;2023-11-22T05:42:30;1.30;;;0.77;;
83182;SDS011;73077;49.898;16.450;2023-11-22T05:44:58;1.40;;;0.52;;
83182;SDS011;73077;49.898;16.450;2023-11-22T05:47:25;1.13;;;0.65;;
83182;SDS011;73077;49.898;16.450;2023-11-22T05:49:52;2.63;;;0.90;;
83182;SDS011;73077;49.898;16.450;2023-11-22T05:52:19;1.27;;;0.68;;
83182;SDS011;73077;49.898;16.450;2023-11-22T05:54:50;3.70;;;0.90;;
83182;SDS011;73077;49.898;16.450;2023-11-22T05:57:17;2.42;;;0.93;;
83182;SDS011;73077;49.898;16.450;2023-11-22T05:59:47;1.23;;;0.77;;
83182;SDS011;73077;49.898;16.450;2023-11-22T06:02:16;2.30;;;0.90;;
83182;SDS011;73077;49.898;16.450;2023-11-22T06:04:43;0.82;;;0.70;;
83182;SDS011;73077;49.898;16.450;2023-11-22T06:07:09;2.33;;;1.05;;
83182;SDS011;73077;49.898;16.450;2023-11-22T06:09:42;4.15;;;1.50;;
83182;SDS011;73077;49.898;16.450;2023-11-22T06:12:09;2.63;;;1.55;;
83182;SDS011;73077;49.898;16.450;2023-11-22T06:14:38;3.53;;;1.25;;
83182;SDS011;73077;49.898;16.450;2023-11-22T06:17:09;2.22;;;0.95;;
83182;SDS011;73077;49.898;16.450;2023-11-22T06:19:37;4.28;;;1.35;;
83182;SDS011;73077;49.898;16.450;2023-11-22T06:22:05;3.17;;;1.17;;
83182;SDS011;73077;49.898;16.450;2023-11-22T06:24:34;2.40;;;1.27;;
83182;SDS011;73077;49.898;16.450;2023-11-22T06:27:17;7.78;;;1.15;;
83182;SDS011;73077;49.898;16.450;2023-11-22T06:29:57;2.55;;;1.13;;
83182;SDS011;73077;49.898;16.450;2023-11-22T06:32:40;3.05;;;1.13;;
83182;SDS011;73077;49.898;16.450;2023-11-22T06:35:13;3.30;;;1.55;;
83182;SDS011;73077;49.898;16.450;2023-11-22T06:37:43;1.38;;;1.25;;
83182;SDS011;73077;49.898;16.450;2023-11-22T06:40:13;4.10;;;1.40;;
83182;SDS011;73077;49.898;16.450;2023-11-22T06:43:09;1.27;;;0.77;;
83182;SDS011;73077;49.898;16.450;2023-11-22T06:45:40;2.30;;;1.40;;
83182;SDS011;73077;49.898;16.450;2023-11-22T06:48:09;1.77;;;0.93;;
83182;SDS011;73077;49.898;16.450;2023-11-22T06:50:39;2.60;;;1.00;;
83182;SDS011;73077;49.898;16.450;2023-11-22T06:53:12;1.77;;;0.70;;
83182;SDS011;73077;49.898;16.450;2023-11-22T06:55:39;2.33;;;1.00;;
83182;SDS011;73077;49.898;16.450;2023-11-22T06:58:06;2.58;;;1.23;;
83182;SDS011;73077;49.898;16.450;2023-11-22T07:00:40;1.77;;;1.13;;
83182;SDS011;73077;49.898;16.450;2023-11-22T07:03:14;2.83;;;1.30;;
83182;SDS011;73077;49.898;16.450;2023-11-22T07:08:11;2.60;;;1.17;;
83182;SDS011;73077;49.898;16.450;2023-11-22T07:10:46;2.00;;;0.82;;
83182;SDS011;73077;49.898;16.450;2023-11-22T07:13:14;2.40;;;1.23;;
83182;SDS011;73077;49.898;16.450;2023-11-22T07:15:48;1.80;;;1.05;;
83182;SDS011;73077;49.898;16.450;2023-11-22T07:18:28;5.32;;;1.13;;
83182;SDS011;73077;49.898;16.450;2023-11-22T07:20:59;10.52;;;0.88;;
83182;SDS011;73077;49.898;16.450;2023-11-22T07:23:28;1.02;;;0.68;;
83182;SDS011;73077;49.898;16.450;2023-11-22T07:25:59;3.55;;;1.48;;
83182;SDS011;73077;49.898;16.450;2023-11-22T07:29:01;1.65;;;0.80;;
83182;SDS011;73077;49.898;16.450;2023-11-22T07:31:31;1.65;;;1.15;;
83182;SDS011;73077;49.898;16.450;2023-11-22T07:34:00;2.42;;;1.23;;
83182;SDS011;73077;49.898;16.450;2023-11-22T07:36:27;3.00;;;1.00;;
83182;SDS011;73077;49.898;16.450;2023-11-22T07:39:00;3.78;;;1.25;;
83182;SDS011;73077;49.898;16.450;2023-11-22T07:41:30;2.20;;;1.23;;
83182;SDS011;73077;49.898;16.450;2023-11-22T07:44:01;0.98;;;0.45;;
83182;SDS011;73077;49.898;16.450;2023-11-22T07:46:31;3.20;;;1.30;;
83182;SDS011;73077;49.898;16.450;2023-11-22T07:48:57;3.08;;;1.15;;
83182;SDS011;73077;49.898;16.450;2023-11-22T07:51:26;1.38;;;0.93;;
83182;SDS011;73077;49.898;16.450;2023-11-22T07:53:53;1.17;;;1.00;;
83182;SDS011;73077;49.898;16.450;2023-11-22T07:56:19;2.35;;;0.60;;
83182;SDS011;73077;49.898;16.450;2023-11-22T07:58:46;4.82;;;1.10;;
83182;SDS011;73077;49.898;16.450;2023-11-22T08:01:13;6.60;;;1.15;;
83182;SDS011;73077;49.898;16.450;2023-11-22T08:03:40;2.55;;;1.73;;
83182;SDS011;73077;49.898;16.450;2023-11-22T08:06:11;1.92;;;0.88;;
83182;SDS011;73077;49.898;16.450;2023-11-22T08:08:41;2.50;;;0.40;;
83182;SDS011;73077;49.898;16.450;2023-11-22T08:11:07;2.88;;;1.48;;
83182;SDS011;73077;49.898;16.450;2023-11-22T08:13:43;2.47;;;0.90;;
83182;SDS011;73077;49.898;16.450;2023-11-22T08:16:11;2.85;;;1.05;;
83182;SDS011;73077;49.898;16.450;2023-11-22T08:18:41;2.25;;;1.48;;
83182;SDS011;73077;49.898;16.450;2023-11-22T08:21:09;2.10;;;0.90;;
83182;SDS011;73077;49.898;16.450;2023-11-22T08:23:35;1.48;;;0.88;;
83182;SDS011;73077;49.898;16.450;2023-11-22T08:26:02;2.40;;;0.85;;
83182;SDS011;73077;49.898;16.450;2023-11-22T08:28:32;1.15;;;0.73;;
83182;SDS011;73077;49.898;16.450;2023-11-22T08:31:00;1.70;;;0.75;;
83182;SDS011;73077;49.898;16.450;2023-11-22T08:33:26;1.88;;;0.55;;
83182;SDS011;73077;49.898;16.450;2023-11-22T08:35:55;3.25;;;1.00;;
83182;SDS011;73077;49.898;16.450;2023-11-22T08:38:26;1.23;;;0.57;;
83182;SDS011;73077;49.898;16.450;2023-11-22T08:40:53;1.90;;;0.77;;
83182;SDS011;73077;49.898;16.450;2023-11-22T08:43:21;2.10;;;0.77;;
83182;SDS011;73077;49.898;16.450;2023-11-22T08:45:51;1.48;;;0.90;;
83182;SDS011;73077;49.898;16.450;2023-11-22T08:48:19;2.05;;;1.27;;
83182;SDS011;73077;49.898;16.450;2023-11-22T08:50:45;6.20;;;1.35;;
83182;SDS011;73077;49.898;16.450;2023-11-22T08:53:15;2.05;;;1.00;;
83182;SDS011;73077;49.898;16.450;2023-11-22T08:55:42;1.67;;;0.70;;
83182;SDS011;73077;49.898;16.450;2023-11-22T08:58:10;3.65;;;1.27;;
83182;SDS011;73077;49.898;16.450;2023-11-22T09:00:43;1.23;;;0.80;;
83182;SDS011;73077;49.898;16.450;2023-11-22T09:03:12;2.58;;;1.10;;
83182;SDS011;73077;49.898;16.450;2023-11-22T09:05:40;2.88;;;1.60;;
83182;SDS011;73077;49.898;16.450;2023-11-22T09:08:07;3.25;;;1.15;;
83182;SDS011;73077;49.898;16.450;2023-11-22T09:10:38;3.78;;;0.82;;
83182;SDS011;73077;49.898;16.450;2023-11-22T09:13:05;1.98;;;0.95;;
83182;SDS011;73077;49.898;16.450;2023-11-22T09:15:32;3.83;;;1.15;;
83182;SDS011;73077;49.898;16.450;2023-11-22T09:17:59;1.83;;;0.93;;
83182;SDS011;73077;49.898;16.450;2023-11-22T09:20:25;2.10;;;0.73;;
83182;SDS011;73077;49.898;16.450;2023-11-22T09:22:52;1.35;;;0.47;;
83182;SDS011;73077;49.898;16.450;2023-11-22T09:25:22;1.30;;;0.63;;
83182;SDS011;73077;49.898;16.450;2023-11-22T09:27:54;2.75;;;1.00;;
83182;SDS011;73077;49.898;16.450;2023-11-22T09:30:25;2.05;;;1.05;;
83182;SDS011;73077;49.898;16.450;2023-11-22T09:33:04;0.80;;;0.40;;
83182;SDS011;73077;49.898;16.450;2023-11-22T09:35:45;1.48;;;0.82;;
83182;SDS011;73077;49.898;16.450;2023-11-22T09:38:13;3.80;;;0.85;;
83182;SDS011;73077;49.898;16.450;2023-11-22T09:40:44;2.03;;;0.90;;
83182;SDS011;73077;49.898;16.450;2023-11-22T09:43:18;3.10;;;1.25;;
83182;SDS011;73077;49.898;16.450;2023-11-22T09:45:46;0.90;;;0.80;;
83182;SDS011;73077;49.898;16.450;2023-11-22T09:48:14;1.55;;;0.90;;
83182;SDS011;73077;49.898;16.450;2023-11-22T09:50:57;1.67;;;1.00;;
83182;SDS011;73077;49.898;16.450;2023-11-22T09:53:36;1.25;;;0.70;;
83182;SDS011;73077;49.898;16.450;2023-11-22T09:56:08;3.70;;;0.82;;
83182;SDS011;73077;49.898;16.450;2023-11-22T09:58:40;1.40;;;1.10;;
83182;SDS011;73077;49.898;16.450;2023-11-22T10:01:13;2.85;;;1.17;;
83182;SDS011;73077;49.898;16.450;2023-11-22T10:03:42;4.22;;;1.17;;
83182;SDS011;73077;49.898;16.450;2023-11-22T10:06:10;2.00;;;1.05;;
83182;SDS011;73077;49.898;16.450;2023-11-22T10:08:40;3.78;;;1.50;;
83182;SDS011;73077;49.898;16.450;2023-11-22T10:11:07;2.10;;;1.08;;
83182;SDS011;73077;49.898;16.450;2023-11-22T10:13:36;1.48;;;0.85;;
83182;SDS011;73077;49.898;16.450;2023-11-22T10:16:09;2.55;;;0.95;;
83182;SDS011;73077;49.898;16.450;2023-11-22T10:18:44;1.23;;;0.77;;
83182;SDS011;73077;49.898;16.450;2023-11-22T10:24:05;3.17;;;0.93;;
83182;SDS011;73077;49.898;16.450;2023-11-22T10:26:35;2.88;;;0.90;;
83182;SDS011;73077;49.898;16.450;2023-11-22T10:29:02;1.48;;;0.90;;
83182;SDS011;73077;49.898;16.450;2023-11-22T10:31:30;2.30;;;1.02;;
83182;SDS011;73077;49.898;16.450;2023-11-22T10:34:01;2.85;;;1.33;;
83182;SDS011;73077;49.898;16.450;2023-11-22T10:36:30;3.08;;;1.30;;
83182;SDS011;73077;49.898;16.450;2023-11-22T10:38:58;1.73;;;0.88;;
83182;SDS011;73077;49.898;16.450;2023-11-22T10:41:27;1.77;;;1.10;;
83182;SDS011;73077;49.898;16.450;2023-11-22T10:43:53;2.08;;;1.23;;
83182;SDS011;73077;49.898;16.450;2023-11-22T10:46:24;1.77;;;1.05;;
83182;SDS011;73077;49.898;16.450;2023-11-22T10:48:55;2.35;;;0.90;;
83182;SDS011;73077;49.898;16.450;2023-11-22T10:51:25;2.63;;;1.05;;
83182;SDS011;73077;49.898;16.450;2023-11-22T10:53:56;1.27;;;1.05;;
83182;SDS011;73077;49.898;16.450;2023-11-22T10:56:32;2.70;;;1.20;;
83182;SDS011;73077;49.898;16.450;2023-11-22T10:59:08;2.92;;;0.95;;
83182;SDS011;73077;49.898;16.450;2023-11-22T11:01:37;2.33;;;1.10;;
83182;SDS011;73077;49.898;16.450;2023-11-22T11:04:16;1.98;;;0.93;;
83182;SDS011;73077;49.898;16.450;2023-11-22T11:06:46;1.67;;;0.88;;
83182;SDS011;73077;49.898;16.450;2023-11-22T11:09:22;3.03;;;1.67;;
83182;SDS011;73077;49.898;16.450;2023-11-22T11:11:56;1.48;;;1.23;;
83182;SDS011;73077;49.898;16.450;2023-11-22T11:14:23;1.83;;;0.93;;
83182;SDS011;73077;49.898;16.450;2023-11-22T11:16:51;3.50;;;0.75;;
83182;SDS011;73077;49.898;16.450;2023-11-22T11:19:22;1.42;;;0.85;;
83182;SDS011;73077;49.898;16.450;2023-11-22T11:21:50;6.65;;;1.23;;
83182;SDS011;73077;49.898;16.450;2023-11-22T11:24:18;3.53;;;1.55;;
83182;SDS011;73077;49.898;16.450;2023-11-22T11:26:49;3.17;;;1.30;;
83182;SDS011;73077;49.898;16.450;2023-11-22T11:29:38;1.20;;;0.73;;
83182;SDS011;73077;49.898;16.450;2023-11-22T11:32:10;3.70;;;1.13;;
83182;SDS011;73077;49.898;16.450;2023-11-22T11:34:48;1.00;;;0.70;;
83182;SDS011;73077;49.898;16.450;2023-11-22T11:37:18;1.20;;;0.68;;
83182;SDS011;73077;49.898;16.450;2023-11-22T11:39:45;1.80;;;1.00;;
83182;SDS011;73077;49.898;16.450;2023-11-22T11:42:11;1.55;;;0.85;;
83182;SDS011;73077;49.898;16.450;2023-11-22T11:44:51;1.83;;;1.13;;
83182;SDS011;73077;49.898;16.450;2023-11-22T11:47:28;2.53;;;1.13;;
83182;SDS011;73077;49.898;16.450;2023-11-22T11:49:55;2.33;;;1.20;;
83182;SDS011;73077;49.898;16.450;2023-11-22T11:52:24;2.67;;;1.55;;
83182;SDS011;73077;49.898;16.450;2023-11-22T11:54:51;2.55;;;1.17;;
83182;SDS011;73077;49.898;16.450;2023-11-22T11:57:17;3.75;;;1.55;;
83182;SDS011;73077;49.898;16.450;2023-11-22T11:59:43;2.10;;;1.35;;
83182;SDS011;73077;49.898;16.450;2023-11-22T12:02:11;2.90;;;1.60;;
83182;SDS011;73077;49.898;16.450;2023-11-22T12:04:42;2.38;;;1.60;;
83182;SDS011;73077;49.898;16.450;2023-11-22T12:07:10;2.22;;;1.50;;
83182;SDS011;73077;49.898;16.450;2023-11-22T12:09:38;2.30;;;1.30;;
83182;SDS011;73077;49.898;16.450;2023-11-22T12:12:07;2.90;;;1.42;;
83182;SDS011;73077;49.898;16.450;2023-11-22T12:14:35;1.98;;;0.77;;
83182;SDS011;73077;49.898;16.450;2023-11-22T12:17:03;1.85;;;0.95;;
83182;SDS011;73077;49.898;16.450;2023-11-22T12:19:34;3.45;;;1.27;;
83182;SDS011;73077;49.898;16.450;2023-11-22T12:22:04;3.05;;;1.70;;
83182;SDS011;73077;49.898;16.450;2023-11-22T12:24:33;4.65;;;1.38;;
83182;SDS011;73077;49.898;16.450;2023-11-22T12:26:59;1.70;;;0.85;;
83182;SDS011;73077;49.898;16.450;2023-11-22T12:29:25;3.30;;;1.48;;
83182;SDS011;73077;49.898;16.450;2023-11-22T12:31:56;2.90;;;1.35;;
83182;SDS011;73077;49.898;16.450;2023-11-22T12:34:23;2.47;;;1.27;;
83182;SDS011;73077;49.898;16.450;2023-11-22T12:36:53;2.03;;;1.40;;
83182;SDS011;73077;49.898;16.450;2023-11-22T12:39:21;3.10;;;1.23;;
83182;SDS011;73077;49.898;16.450;2023-11-22T12:41:50;2.20;;;1.27;;
83182;SDS011;73077;49.898;16.450;2023-11-22T12:44:18;2.53;;;1.02;;
83182;SDS011;73077;49.898;16.450;2023-11-22T12:46:45;2.72;;;1.27;;
83182;SDS011;73077;49.898;16.450;2023-11-22T12:49:16;3.25;;;1.27;;
83182;SDS011;73077;49.898;16.450;2023-11-22T12:51:46;3.58;;;1.33;;
83182;SDS011;73077;49.898;16.450;2023-11-22T12:54:15;2.08;;;1.17;;
83182;SDS011;73077;49.898;16.450;2023-11-22T12:56:41;1.92;;;0.95;;
83182;SDS011;73077;49.898;16.450;2023-11-22T12:59:10;4.55;;;1.35;;
83182;SDS011;73077;49.898;16.450;2023-11-22T13:01:38;2.97;;;1.58;;
83182;SDS011;73077;49.898;16.450;2023-11-22T13:04:05;3.17;;;1.73;;
83182;SDS011;73077;49.898;16.450;2023-11-22T13:06:31;2.22;;;1.35;;
83182;SDS011;73077;49.898;16.450;2023-11-22T13:08:57;1.60;;;0.77;;
83182;SDS011;73077;49.898;16.450;2023-11-22T13:11:23;2.65;;;1.15;;
83182;SDS011;73077;49.898;16.450;2023-11-22T13:13:50;3.05;;;0.88;;
83182;SDS011;73077;49.898;16.450;2023-11-22T13:16:16;4.45;;;1.50;;
83182;SDS011;73077;49.898;16.450;2023-11-22T13:18:44;2.88;;;1.50;;
83182;SDS011;73077;49.898;16.450;2023-11-22T13:21:11;3.03;;;1.35;;
83182;SDS011;73077;49.898;16.450;2023-11-22T13:23:38;3.85;;;1.85;;
83182;SDS011;73077;49.898;16.450;2023-11-22T13:26:05;1.55;;;1.13;;
83182;SDS011;73077;49.898;16.450;2023-11-22T13:28:38;2.17;;;1.42;;
83182;SDS011;73077;49.898;16.450;2023-11-22T13:31:07;2.15;;;1.27;;
83182;SDS011;73077;49.898;16.450;2023-11-22T13:33:33;1.27;;;0.90;;
83182;SDS011;73077;49.898;16.450;2023-11-22T13:35:59;1.73;;;1.25;;
83182;SDS011;73077;49.898;16.450;2023-11-22T13:38:25;2.63;;;1.30;;
83182;SDS011;73077;49.898;16.450;2023-11-22T13:40:52;6.32;;;1.85;;
83182;SDS011;73077;49.898;16.450;2023-11-22T13:43:18;3.15;;;1.30;;
83182;SDS011;73077;49.898;16.450;2023-11-22T13:45:44;2.97;;;1.85;;
83182;SDS011;73077;49.898;16.450;2023-11-22T13:48:10;2.30;;;1.15;;
83182;SDS011;73077;49.898;16.450;2023-11-22T13:50:36;1.92;;;1.20;;
83182;SDS011;73077;49.898;16.450;2023-11-22T13:53:03;2.10;;;1.35;;
83182;SDS011;73077;49.898;16.450;2023-11-22T13:55:29;3.97;;;1.40;;
83182;SDS011;73077;49.898;16.450;2023-11-22T13:57:56;2.13;;;1.15;;
83182;SDS011;73077;49.898;16.450;2023-11-22T14:00:24;2.30;;;0.88;;
83182;SDS011;73077;49.898;16.450;2023-11-22T14:03:02;2.38;;;1.50;;
83182;SDS011;73077;49.898;16.450;2023-11-22T14:05:33;2.55;;;1.27;;
83182;SDS011;73077;49.898;16.450;2023-11-22T14:08:02;3.00;;;2.00;;
83182;SDS011;73077;49.898;16.450;2023-11-22T14:10:29;2.25;;;1.52;;
83182;SDS011;73077;49.898;16.450;2023-11-22T14:12:55;3.10;;;1.00;;
83182;SDS011;73077;49.898;16.450;2023-11-22T14:15:26;1.52;;;0.98;;
83182;SDS011;73077;49.898;16.450;2023-11-22T14:17:55;1.60;;;0.68;;
83182;SDS011;73077;49.898;16.450;2023-11-22T14:20:21;2.95;;;1.60;;
83182;SDS011;73077;49.898;16.450;2023-11-22T14:22:47;2.65;;;1.10;;
83182;SDS011;73077;49.898;16.450;2023-11-22T14:25:13;1.75;;;0.75;;
83182;SDS011;73077;49.898;16.450;2023-11-22T14:27:43;2.13;;;1.65;;
83182;SDS011;73077;49.898;16.450;2023-11-22T14:30:10;2.30;;;1.10;;
83182;SDS011;73077;49.898;16.450;2023-11-22T14:32:40;2.20;;;0.88;;
83182;SDS011;73077;49.898;16.450;2023-11-22T14:35:09;2.83;;;1.00;;
83182;SDS011;73077;49.898;16.450;2023-11-22T14:37:36;3.00;;;1.25;;
83182;SDS011;73077;49.898;16.450;2023-11-22T14:40:05;2.13;;;1.17;;
83182;SDS011;73077;49.898;16.450;2023-11-22T14:42:42;1.95;;;1.15;;
83182;SDS011;73077;49.898;16.450;2023-11-22T14:45:10;3.05;;;1.65;;
83182;SDS011;73077;49.898;16.450;2023-11-22T14:47:37;1.48;;;1.20;;
83182;SDS011;73077;49.898;16.450;2023-11-22T14:50:05;2.80;;;1.58;;
83182;SDS011;73077;49.898;16.450;2023-11-22T14:52:33;1.75;;;1.20;;